createdAt,value
2022-10-20T00:01:08.445Z,14.10
2022-10-20T00:03:35.365Z,14.10
2022-10-20T00:06:11.116Z,14.10
2022-10-20T00:08:39.327Z,14.10
2022-10-20T00:11:07.316Z,14.10
2022-10-20T00:13:34.173Z,14.10
2022-10-20T00:16:00.753Z,14.00
2022-10-20T00:18:27.939Z,14.00
2022-10-20T00:20:54.823Z,14.00
2022-10-20T00:23:22.137Z,13.90
2022-10-20T00:25:48.823Z,13.90
2022-10-20T00:28:15.489Z,13.90
2022-10-20T00:30:42.084Z,13.90
2022-10-20T00:33:08.807Z,13.80
2022-10-20T00:35:37.717Z,13.80
2022-10-20T00:38:04.351Z,13.80
2022-10-20T00:40:31.028Z,13.80
2022-10-20T00:42:57.663Z,13.80
2022-10-20T00:45:24.572Z,13.70
2022-10-20T00:47:53.207Z,13.70
2022-10-20T00:50:42.373Z,13.70
2022-10-20T00:53:09.185Z,13.70
2022-10-20T00:55:37.469Z,13.70
2022-10-20T00:58:04.712Z,13.70
2022-10-20T01:00:31.835Z,13.70
2022-10-20T01:03:01.543Z,13.70
2022-10-20T01:05:28.632Z,13.60
2022-10-20T01:07:55.568Z,13.60
2022-10-20T01:10:23.403Z,13.60
2022-10-20T01:12:49.974Z,13.60
2022-10-20T01:15:34.539Z,13.60
2022-10-20T01:18:09.862Z,13.60
2022-10-20T01:20:45.132Z,13.60
2022-10-20T01:23:34.281Z,13.60
2022-10-20T01:26:30.124Z,13.60
2022-10-20T01:28:58.555Z,13.60
2022-10-20T01:31:33.882Z,13.60
2022-10-20T01:34:12.983Z,13.60
2022-10-20T01:36:47.345Z,13.60
2022-10-20T01:39:25.762Z,13.50
2022-10-20T01:42:18.756Z,13.50
2022-10-20T01:44:47.218Z,13.40
2022-10-20T01:47:15.921Z,13.50
2022-10-20T01:49:45.124Z,13.40
2022-10-20T01:52:12.502Z,13.40
2022-10-20T01:54:39.594Z,13.30
2022-10-20T01:57:19.602Z,13.30
2022-10-20T02:00:06.588Z,13.30
2022-10-20T02:02:49.092Z,13.20
2022-10-20T02:05:42.531Z,13.20
2022-10-20T02:08:37.312Z,13.20
2022-10-20T02:11:07.328Z,13.20
2022-10-20T02:13:38.490Z,13.20
2022-10-20T02:16:12.828Z,13.20
2022-10-20T02:18:42.880Z,13.10
2022-10-20T02:21:11.054Z,13.10
2022-10-20T02:23:40.290Z,13.10
2022-10-20T02:26:09.581Z,13.20
2022-10-20T02:28:39.165Z,13.10
2022-10-20T02:31:05.909Z,13.20
2022-10-20T02:33:33.790Z,13.20
2022-10-20T02:36:04.868Z,13.10
2022-10-20T02:38:31.803Z,13.10
2022-10-20T02:40:58.451Z,13.10
2022-10-20T02:43:25.117Z,13.20
2022-10-20T02:45:51.750Z,13.20
2022-10-20T02:48:18.416Z,13.10
2022-10-20T02:50:45.136Z,13.20
2022-10-20T02:53:11.727Z,13.10
2022-10-20T02:55:38.374Z,13.20
2022-10-20T02:58:05.014Z,13.10
2022-10-20T03:00:31.935Z,13.10
2022-10-20T03:02:58.694Z,13.20
2022-10-20T03:05:26.904Z,13.10
2022-10-20T03:07:54.105Z,13.10
2022-10-20T03:10:20.950Z,13.10
2022-10-20T03:12:47.573Z,13.10
2022-10-20T03:15:14.443Z,13.10
2022-10-20T03:17:41.018Z,13.00
2022-10-20T03:20:08.214Z,13.10
2022-10-20T03:22:34.871Z,13.10
2022-10-20T03:25:01.529Z,13.00
2022-10-20T03:27:28.130Z,13.00
2022-10-20T03:29:54.769Z,13.00
2022-10-20T03:32:21.437Z,12.90
2022-10-20T03:34:48.055Z,12.90
2022-10-20T03:37:14.701Z,12.90
2022-10-20T03:39:41.566Z,12.80
2022-10-20T03:42:08.306Z,12.80
2022-10-20T03:44:34.967Z,12.80
2022-10-20T03:47:01.683Z,12.80
2022-10-20T03:49:28.364Z,12.80
2022-10-20T03:51:55.018Z,12.80
2022-10-20T03:54:21.694Z,12.70
2022-10-20T03:56:48.427Z,12.80
2022-10-20T03:59:15.189Z,12.70
2022-10-20T04:01:45.390Z,12.70
2022-10-20T04:04:12.602Z,12.70
2022-10-20T04:06:39.416Z,12.70
2022-10-20T04:09:06.213Z,12.60
2022-10-20T04:11:33.058Z,12.60
2022-10-20T04:13:59.623Z,12.60
2022-10-20T04:16:26.351Z,12.60
2022-10-20T04:18:53.166Z,12.60
2022-10-20T04:21:19.735Z,12.60
2022-10-20T04:23:46.381Z,12.60
2022-10-20T04:26:15.131Z,12.60
2022-10-20T04:28:42.432Z,12.60
2022-10-20T04:31:09.248Z,12.60
2022-10-20T04:33:36.213Z,12.50
2022-10-20T04:36:06.593Z,12.50
2022-10-20T04:38:34.658Z,12.50
2022-10-20T04:41:04.436Z,12.50
2022-10-20T04:43:32.577Z,12.50
2022-10-20T04:46:07.004Z,12.50
2022-10-20T04:48:35.694Z,12.50
2022-10-20T04:51:06.523Z,12.50
2022-10-20T04:53:33.546Z,12.50
2022-10-20T04:56:00.370Z,12.50
2022-10-20T04:58:27.443Z,12.50
2022-10-20T05:00:54.169Z,12.50
2022-10-20T05:03:21.211Z,12.50
2022-10-20T05:05:48.037Z,12.50
2022-10-20T05:08:14.626Z,12.50
2022-10-20T05:10:41.302Z,12.50
2022-10-20T05:13:07.990Z,12.50
2022-10-20T05:15:34.662Z,12.50
2022-10-20T05:18:01.306Z,12.40
2022-10-20T05:20:30.906Z,12.50
2022-10-20T05:22:57.809Z,12.40
2022-10-20T05:25:36.055Z,12.40
2022-10-20T05:28:04.400Z,12.40
2022-10-20T05:30:31.197Z,12.30
2022-10-20T05:32:57.819Z,12.20
2022-10-20T05:35:24.485Z,12.10
2022-10-20T05:37:51.174Z,12.10
2022-10-20T05:40:17.725Z,12.00
2022-10-20T05:42:44.410Z,11.90
2022-10-20T05:45:11.218Z,11.80
2022-10-20T05:47:37.949Z,11.80
2022-10-20T05:50:05.249Z,11.80
2022-10-20T05:52:34.484Z,11.70
2022-10-20T05:55:01.502Z,11.70
2022-10-20T05:57:28.090Z,11.70
2022-10-20T05:59:54.992Z,11.60
2022-10-20T06:02:22.152Z,11.60
2022-10-20T06:04:48.809Z,11.60
2022-10-20T06:07:15.712Z,11.60
2022-10-20T06:09:42.294Z,11.60
2022-10-20T06:14:40.598Z,11.60
2022-10-20T06:17:07.389Z,11.60
2022-10-20T06:19:33.967Z,11.60
2022-10-20T06:22:03.977Z,11.60
2022-10-20T06:24:33.880Z,11.60
2022-10-20T06:27:00.498Z,11.60
2022-10-20T06:29:27.307Z,11.60
2022-10-20T06:31:54.755Z,11.60
2022-10-20T06:34:25.334Z,11.60
2022-10-20T06:36:52.759Z,11.60
2022-10-20T06:39:22.533Z,11.60
2022-10-20T06:41:51.013Z,11.60
2022-10-20T06:44:22.783Z,11.60
2022-10-20T06:46:52.219Z,11.60
2022-10-20T06:49:19.446Z,11.60
2022-10-20T06:51:46.173Z,11.60
2022-10-20T06:54:12.830Z,11.70
2022-10-20T06:56:40.231Z,11.70
2022-10-20T06:59:07.278Z,11.70
2022-10-20T07:01:36.700Z,11.70
2022-10-20T07:04:15.575Z,11.80
2022-10-20T07:06:43.912Z,11.80
2022-10-20T07:09:14.463Z,11.90
2022-10-20T07:11:41.784Z,12.00
2022-10-20T07:14:09.779Z,12.10
2022-10-20T07:16:36.498Z,12.20
2022-10-20T07:19:04.233Z,12.30
2022-10-20T07:21:35.640Z,12.30
2022-10-20T07:24:05.829Z,12.40
2022-10-20T07:26:35.525Z,12.40
2022-10-20T07:29:03.819Z,12.50
2022-10-20T07:31:39.705Z,12.50
2022-10-20T07:34:26.183Z,12.60
2022-10-20T07:36:54.567Z,12.60
2022-10-20T07:39:21.267Z,12.60
2022-10-20T07:41:48.598Z,12.60
2022-10-20T07:44:16.038Z,12.60
2022-10-20T07:46:42.899Z,12.60
2022-10-20T07:51:56.242Z,12.60
2022-10-20T07:54:23.099Z,12.70
2022-10-20T07:56:50.009Z,12.70
2022-10-20T07:59:16.607Z,12.80
2022-10-20T08:01:43.749Z,12.80
2022-10-20T08:04:11.107Z,12.80
2022-10-20T08:06:39.148Z,12.90
2022-10-20T08:09:07.217Z,12.90
2022-10-20T08:11:34.120Z,12.90
2022-10-20T08:14:00.886Z,12.90
2022-10-20T08:16:31.926Z,13.00
2022-10-20T08:19:15.220Z,13.00
2022-10-20T08:21:41.920Z,13.00
2022-10-20T08:24:08.699Z,13.10
2022-10-20T08:26:35.378Z,13.20
2022-10-20T08:29:02.575Z,13.20
2022-10-20T08:31:29.370Z,13.30
2022-10-20T08:33:56.859Z,13.30
2022-10-20T08:36:23.766Z,13.30
2022-10-20T08:38:50.534Z,13.30
2022-10-20T08:41:55.492Z,13.30
2022-10-20T08:44:27.149Z,13.30
2022-10-20T08:46:53.928Z,13.30
2022-10-20T08:49:25.095Z,13.30
2022-10-20T08:51:52.182Z,13.30
2022-10-20T08:54:19.320Z,13.30
2022-10-20T08:56:46.666Z,13.30
2022-10-20T08:59:33.624Z,13.30
2022-10-20T09:02:00.783Z,13.30
2022-10-20T09:04:32.342Z,13.30
2022-10-20T09:07:03.356Z,13.30
2022-10-20T09:09:32.063Z,13.30
2022-10-20T09:12:10.016Z,13.30
2022-10-20T09:14:37.726Z,13.30
2022-10-20T09:17:09.113Z,13.30
2022-10-20T09:19:38.480Z,13.30
2022-10-20T09:22:06.954Z,13.30
2022-10-20T09:24:35.682Z,13.30
2022-10-20T09:27:29.837Z,13.30
2022-10-20T09:29:56.566Z,13.30
2022-10-20T09:32:50.371Z,13.30
2022-10-20T09:35:32.985Z,13.30
2022-10-20T09:38:04.466Z,13.40
2022-10-20T09:40:31.617Z,13.50
2022-10-20T09:43:09.119Z,13.80
2022-10-20T09:45:39.168Z,14.10
2022-10-20T09:48:37.323Z,14.30
2022-10-20T09:51:07.092Z,14.40
2022-10-20T09:53:40.854Z,14.50
2022-10-20T09:56:07.677Z,14.70
2022-10-20T09:58:37.817Z,14.80
2022-10-20T10:01:12.249Z,14.90
2022-10-20T10:03:47.843Z,15.00
2022-10-20T10:06:29.992Z,15.20
2022-10-20T10:08:58.902Z,15.30
2022-10-20T10:11:43.969Z,15.30
2022-10-20T10:14:23.243Z,15.40
2022-10-20T10:16:50.079Z,15.40
2022-10-20T10:19:19.335Z,15.40
2022-10-20T10:21:51.332Z,15.30
2022-10-20T10:24:42.876Z,15.30
2022-10-20T10:27:20.253Z,15.40
2022-10-20T10:29:47.166Z,15.40
2022-10-20T10:32:18.951Z,15.40
2022-10-20T10:35:15.044Z,15.50
2022-10-20T10:37:43.666Z,15.60
2022-10-20T10:40:17.424Z,15.70
2022-10-20T10:42:46.782Z,15.70
2022-10-20T10:45:16.179Z,15.70
2022-10-20T10:48:08.562Z,15.70
2022-10-20T10:50:51.391Z,15.70
2022-10-20T10:53:46.034Z,15.80
2022-10-20T10:56:21.096Z,15.70
2022-10-20T10:58:57.137Z,15.70
2022-10-20T11:01:56.239Z,15.70
2022-10-20T11:04:41.884Z,15.80
2022-10-20T11:07:36.975Z,15.80
2022-10-20T11:10:54.650Z,15.80
2022-10-20T11:13:49.171Z,15.80
2022-10-20T11:16:22.056Z,15.80
2022-10-20T11:19:00.500Z,15.80
2022-10-20T11:21:45.312Z,15.80
2022-10-20T11:24:24.627Z,15.80
2022-10-20T11:26:56.532Z,15.80
2022-10-20T11:29:44.834Z,15.80
2022-10-20T11:32:20.706Z,15.90
2022-10-20T11:35:01.542Z,15.90
2022-10-20T11:37:31.293Z,16.00
2022-10-20T11:40:07.542Z,16.00
2022-10-20T11:43:11.059Z,16.00
2022-10-20T11:46:12.808Z,16.00
2022-10-20T11:48:44.347Z,16.10
2022-10-20T11:51:29.900Z,16.10
2022-10-20T11:54:33.829Z,16.10
2022-10-20T11:57:31.207Z,16.10
2022-10-20T12:00:22.296Z,16.10
2022-10-20T12:03:26.900Z,16.10
2022-10-20T12:06:13.085Z,16.20
2022-10-20T12:09:07.755Z,16.20
2022-10-20T12:12:05.297Z,16.30
2022-10-20T12:14:38.082Z,16.30
2022-10-20T12:17:14.449Z,16.30
2022-10-20T12:19:41.577Z,16.40
2022-10-20T12:22:14.592Z,16.40
2022-10-20T12:24:43.720Z,16.40
2022-10-20T12:27:10.438Z,16.40
2022-10-20T12:29:37.119Z,16.50
2022-10-20T12:32:23.884Z,16.50
2022-10-20T12:34:54.592Z,16.50
2022-10-20T12:37:24.393Z,16.50
2022-10-20T12:40:21.329Z,16.50
2022-10-20T12:42:51.432Z,16.50
2022-10-20T12:45:18.032Z,16.50
2022-10-20T12:47:53.497Z,16.60
2022-10-20T12:50:45.167Z,16.60
2022-10-20T12:53:18.003Z,16.70
2022-10-20T12:55:53.997Z,16.70
2022-10-20T12:58:20.613Z,16.70
2022-10-20T13:00:47.340Z,16.70
2022-10-20T13:03:32.376Z,16.80
2022-10-20T13:05:59.631Z,16.80
2022-10-20T13:08:32.347Z,16.80
2022-10-20T13:11:37.686Z,16.90
2022-10-20T13:14:13.363Z,16.90
2022-10-20T13:16:49.403Z,16.90
2022-10-20T13:19:35.560Z,16.90
2022-10-20T13:22:39.091Z,17.00
2022-10-20T13:25:18.107Z,17.00
2022-10-20T13:27:44.856Z,17.10
2022-10-20T13:30:21.676Z,17.10
2022-10-20T13:33:11.222Z,17.10
2022-10-20T13:36:14.447Z,17.00
2022-10-20T13:38:52.910Z,16.90
2022-10-20T13:41:34.228Z,16.90
2022-10-20T13:44:14.973Z,16.80
2022-10-20T13:47:13.375Z,16.80
2022-10-20T13:50:06.312Z,16.90
2022-10-20T13:52:39.947Z,16.90
2022-10-20T13:55:08.321Z,16.90
2022-10-20T13:57:36.006Z,17.00
2022-10-20T14:00:23.072Z,17.00
2022-10-20T14:02:59.908Z,17.00
2022-10-20T14:05:29.186Z,17.00
2022-10-20T14:07:56.114Z,17.00
2022-10-20T14:10:43.480Z,17.00
2022-10-20T14:13:15.157Z,17.00
2022-10-20T14:15:50.600Z,17.00
2022-10-20T14:18:26.253Z,17.00
2022-10-20T14:21:02.658Z,17.00
2022-10-20T14:23:36.680Z,16.90
2022-10-20T14:26:07.111Z,16.90
2022-10-20T14:28:35.605Z,16.80
2022-10-20T14:31:02.824Z,16.80
2022-10-20T14:33:30.522Z,16.80
2022-10-20T14:35:59.229Z,16.70
2022-10-20T14:38:37.829Z,16.50
2022-10-20T14:41:07.596Z,16.40
2022-10-20T14:43:40.805Z,16.30
2022-10-20T14:46:12.826Z,16.10
2022-10-20T14:48:46.092Z,16.00
2022-10-20T14:51:30.937Z,15.90
2022-10-20T14:57:29.974Z,15.70
2022-10-20T15:00:24.949Z,15.70
2022-10-20T15:02:56.756Z,15.70
2022-10-20T15:05:26.267Z,15.70
2022-10-20T15:07:53.985Z,15.60
2022-10-20T15:10:23.876Z,15.60
2022-10-20T15:12:53.101Z,15.50
2022-10-20T15:15:27.696Z,15.50
2022-10-20T15:18:06.741Z,15.40
2022-10-20T15:20:37.477Z,15.30
2022-10-20T15:23:18.984Z,15.30
2022-10-20T15:25:57.949Z,15.20
2022-10-20T15:28:49.584Z,15.20
2022-10-20T15:31:25.075Z,15.10
2022-10-20T15:33:52.633Z,15.10
2022-10-20T15:36:29.518Z,15.00
2022-10-20T15:38:57.196Z,15.00
2022-10-20T15:41:27.026Z,14.90
2022-10-20T15:43:54.108Z,14.90
2022-10-20T15:46:21.639Z,14.80
2022-10-20T15:48:48.808Z,14.80
2022-10-20T15:51:25.947Z,14.70
2022-10-20T15:53:53.017Z,14.70
2022-10-20T15:56:19.821Z,14.70
2022-10-20T15:58:47.031Z,14.60
2022-10-20T16:01:16.795Z,14.60
2022-10-20T16:03:44.525Z,14.60
2022-10-20T16:06:16.224Z,14.50
2022-10-20T16:08:44.643Z,14.50
2022-10-20T16:11:12.238Z,14.50
2022-10-20T16:13:39.145Z,14.50
2022-10-20T16:16:07.685Z,14.50
2022-10-20T16:18:34.614Z,14.40
2022-10-20T16:21:03.421Z,14.40
2022-10-20T16:23:30.077Z,14.40
2022-10-20T16:25:56.782Z,14.40
2022-10-20T16:28:23.377Z,14.40
2022-10-20T16:30:50.071Z,14.40
2022-10-20T16:33:16.819Z,14.30
2022-10-20T16:35:43.991Z,14.30
2022-10-20T16:38:11.383Z,14.20
2022-10-20T16:40:38.150Z,14.20
2022-10-20T16:43:04.793Z,14.20
2022-10-20T16:45:31.457Z,14.20
2022-10-20T16:47:58.226Z,14.20
2022-10-20T16:50:24.875Z,14.10
2022-10-20T16:52:51.560Z,14.10
2022-10-20T16:55:18.308Z,14.00
2022-10-20T16:57:44.894Z,14.00
2022-10-20T17:00:12.121Z,13.90
2022-10-20T17:02:40.228Z,13.80
2022-10-20T17:05:09.359Z,13.80
2022-10-20T17:07:36.890Z,13.80
2022-10-20T17:10:03.966Z,13.70
2022-10-20T17:12:30.660Z,13.60
2022-10-20T17:14:57.341Z,13.60
2022-10-20T17:17:23.898Z,13.60
2022-10-20T17:19:50.620Z,13.60
2022-10-20T17:22:17.261Z,13.60
2022-10-20T17:24:43.894Z,13.60
2022-10-20T17:27:10.520Z,13.60
2022-10-20T17:29:37.137Z,13.60
2022-10-20T17:36:05.284Z,13.60
2022-10-20T17:38:32.298Z,13.60
2022-10-20T17:41:06.401Z,13.60
2022-10-20T17:43:33.724Z,13.60
2022-10-20T17:46:05.645Z,13.60
2022-10-20T17:48:32.943Z,13.60
2022-10-20T17:51:08.338Z,13.60
2022-10-20T17:53:37.242Z,13.60
2022-10-20T17:56:06.535Z,13.60
2022-10-20T17:58:34.084Z,13.70
2022-10-20T18:01:19.564Z,13.80
2022-10-20T18:03:48.512Z,13.80
2022-10-20T18:06:18.649Z,13.80
2022-10-20T18:08:46.260Z,13.90
2022-10-20T18:11:19.209Z,13.90
2022-10-20T18:13:46.497Z,13.90
2022-10-20T18:16:16.122Z,13.90
2022-10-20T18:18:43.137Z,13.90
2022-10-20T18:21:12.882Z,13.90
2022-10-20T18:23:42.382Z,13.90
2022-10-20T18:26:19.473Z,13.80
2022-10-20T18:28:48.545Z,13.90
2022-10-20T18:31:24.060Z,13.80
2022-10-20T18:33:56.261Z,13.80
2022-10-20T18:36:24.169Z,13.90
2022-10-20T18:38:51.349Z,13.90
2022-10-20T18:41:21.119Z,13.80
2022-10-20T18:43:55.607Z,13.90
2022-10-20T18:46:25.979Z,13.90
2022-10-20T18:48:52.885Z,13.80
2022-10-20T18:51:19.632Z,13.80
2022-10-20T18:53:46.926Z,13.80
2022-10-20T18:56:18.961Z,13.80
2022-10-20T18:58:58.872Z,13.70
2022-10-20T19:01:28.596Z,13.70
2022-10-20T19:03:56.974Z,13.70
2022-10-20T19:06:26.403Z,13.70
2022-10-20T19:09:01.583Z,13.70
2022-10-20T19:11:30.844Z,13.70
2022-10-20T19:13:58.764Z,13.70
2022-10-20T19:16:28.333Z,13.70
2022-10-20T19:18:57.635Z,13.60
2022-10-20T19:21:25.324Z,13.60
2022-10-20T19:24:04.309Z,13.60
2022-10-20T19:26:57.015Z,13.60
2022-10-20T19:29:33.606Z,13.60
2022-10-20T19:32:01.184Z,13.60
2022-10-20T19:34:34.820Z,13.60
2022-10-20T19:37:02.480Z,13.50
2022-10-20T19:39:32.465Z,13.50
2022-10-20T19:42:00.930Z,13.60
2022-10-20T19:44:28.857Z,13.50
2022-10-20T19:46:56.077Z,13.50
2022-10-20T19:49:23.560Z,13.50
2022-10-20T19:51:50.506Z,13.50
2022-10-20T19:54:17.439Z,13.50
2022-10-20T19:56:44.184Z,13.50
2022-10-20T19:59:11.160Z,13.50
2022-10-20T20:01:38.302Z,13.50
2022-10-20T20:04:06.393Z,13.60
2022-10-20T20:06:34.341Z,13.60
2022-10-20T20:09:04.210Z,13.60
2022-10-20T20:11:31.370Z,13.60
2022-10-20T20:14:03.447Z,13.60
2022-10-20T20:16:30.456Z,13.60
2022-10-20T20:18:57.179Z,13.60
2022-10-20T20:21:25.436Z,13.60
2022-10-20T20:24:00.784Z,13.60
2022-10-20T20:26:29.914Z,13.60
2022-10-20T20:28:57.248Z,13.60
2022-10-20T20:31:25.063Z,13.60
2022-10-20T20:33:52.786Z,13.60
2022-10-20T20:36:19.890Z,13.60
2022-10-20T20:38:46.815Z,13.60
2022-10-20T20:41:18.124Z,13.60
2022-10-20T20:43:45.245Z,13.70
2022-10-20T20:46:18.385Z,13.70
2022-10-20T20:48:45.710Z,13.70
2022-10-20T20:51:13.444Z,13.70
2022-10-20T20:53:40.776Z,13.70
2022-10-20T20:56:10.244Z,13.70
2022-10-20T20:58:37.301Z,13.70
2022-10-20T21:01:14.329Z,13.70
2022-10-20T21:03:41.901Z,13.70
2022-10-20T21:06:16.837Z,13.70
2022-10-20T21:08:47.598Z,13.70
2022-10-20T21:11:17.382Z,13.70
2022-10-20T21:13:45.232Z,13.80
2022-10-20T21:16:19.530Z,13.80
2022-10-20T21:18:49.017Z,13.90
2022-10-20T21:21:19.218Z,13.90
2022-10-20T21:23:46.247Z,13.90
2022-10-20T21:26:15.333Z,13.90
2022-10-20T21:28:43.036Z,13.90
2022-10-20T21:31:12.400Z,13.90
2022-10-20T21:33:39.379Z,13.90
2022-10-20T21:36:09.197Z,13.90
2022-10-20T21:38:37.322Z,13.90
2022-10-20T21:41:11.733Z,14.00
2022-10-20T21:43:41.278Z,14.10
2022-10-20T21:46:18.647Z,14.20
2022-10-20T21:48:46.247Z,14.20
2022-10-20T21:51:23.145Z,14.30
2022-10-20T21:53:53.835Z,14.40
2022-10-20T21:56:20.502Z,14.40
2022-10-20T21:58:47.213Z,14.30
2022-10-20T22:01:15.258Z,14.30
2022-10-20T22:03:42.433Z,14.30
2022-10-20T22:06:11.417Z,14.30
2022-10-20T22:08:39.718Z,14.30
2022-10-20T22:11:10.001Z,14.30
2022-10-20T22:13:37.421Z,14.30
2022-10-20T22:16:09.155Z,14.30
2022-10-20T22:18:36.147Z,14.30
2022-10-20T22:21:11.161Z,14.30
2022-10-20T22:23:40.382Z,14.20
2022-10-20T22:26:07.472Z,14.20
2022-10-20T22:28:34.211Z,14.20
2022-10-20T22:33:32.830Z,14.30
2022-10-20T22:35:59.593Z,14.30
2022-10-20T22:38:26.235Z,14.30
2022-10-20T22:40:57.007Z,14.30
2022-10-20T22:43:23.814Z,14.20
2022-10-20T22:45:50.600Z,14.30
2022-10-20T22:48:17.433Z,14.30
2022-10-20T22:50:44.072Z,14.30
2022-10-20T22:53:11.162Z,14.30
2022-10-20T22:55:37.926Z,14.20
2022-10-20T22:58:04.695Z,14.20
2022-10-20T23:00:31.466Z,14.20
2022-10-20T23:02:58.533Z,14.20
2022-10-20T23:05:25.179Z,14.20
2022-10-20T23:07:51.815Z,14.20
2022-10-20T23:10:18.478Z,14.20
2022-10-20T23:12:45.154Z,14.20
2022-10-20T23:15:11.987Z,14.10
2022-10-20T23:17:39.148Z,14.10
2022-10-20T23:20:06.313Z,14.00
2022-10-20T23:22:33.367Z,14.00
2022-10-20T23:25:01.412Z,14.00
2022-10-20T23:27:28.228Z,13.90
2022-10-20T23:29:54.976Z,13.80
2022-10-20T23:32:21.646Z,13.70
2022-10-20T23:34:48.290Z,13.60
2022-10-20T23:37:15.007Z,13.60
2022-10-20T23:39:41.631Z,13.50
2022-10-20T23:42:08.330Z,13.50
2022-10-20T23:44:35.050Z,13.40
2022-10-20T23:47:01.665Z,13.40
2022-10-20T23:49:28.421Z,13.40
2022-10-20T23:51:55.219Z,13.40
2022-10-20T23:54:21.976Z,13.40
2022-10-20T23:56:48.619Z,13.30
2022-10-20T23:59:15.396Z,13.30
